CYYJ

Victoria International Airport

Victoria, , Canada
METAR CYYJ 161700Z 12005KT 15SM FEW180 SCT250 16/11 A3005 RMK AC1CS3 AC TR FU SLP177 DENSITY ALT 100FT
Observed Flight Rules
Aug-16 @ 17:00 UTC (35 minutes ago) Visual Flight Rules
Wind Visibility Clouds
120° at 5 knots 15 miles
  • Few at 18,000' AGL
  • Scattered at 25,000' AGL
Temperatures Readings
Current 16°C / 61°F
Dewpoint 11°C / 52°F
Humidity 72%
Altimeter 30.05" Hg
Pressure 1017.7 hPa
Elevation 19
METAR CYYJ 161700Z 12005KT 15SM FEW180 SCT250 16/11 A3005 RMK AC1CS3 AC TR FU SLP177 DENSITY ALT 100FT
Observed Flight Rules
Aug-16 @ 17:00 UTC
(35 minutes ago)
VFR
Wind Visibility
120° at 5 knots 15 miles
Clouds
  • Few at 18,000' AGL
  • Scattered at 25,000' AGL
Temperature Dewpoint
16°C / 61°F 11°C / 52°F
Humidity Altimeter Pressure
72% 30.05" Hg 1017.7 hPa